createdAt,value
2023-03-27T00:01:16.835Z,98867.63
2023-03-27T00:03:43.485Z,98874.00
2023-03-27T00:06:16.824Z,98869.72
2023-03-27T00:08:46.309Z,98876.03
2023-03-27T00:11:13.262Z,98878.00
2023-03-27T00:13:42.659Z,98887.75
2023-03-27T00:16:16.294Z,98889.06
2023-03-27T00:18:42.660Z,98896.28
2023-03-27T00:21:09.436Z,98901.72
2023-03-27T00:23:36.343Z,98909.81
2023-03-27T00:26:03.001Z,98916.19
2023-03-27T00:28:30.207Z,98923.38
2023-03-27T00:30:57.593Z,98921.13
2023-03-27T00:33:25.298Z,98926.72
2023-03-27T00:35:52.455Z,98943.47
2023-03-27T00:38:19.304Z,98944.63
2023-03-27T00:40:46.758Z,98960.56
2023-03-27T00:43:22.258Z,98952.03
2023-03-27T00:45:52.597Z,98947.00
2023-03-27T00:48:20.605Z,98950.63
2023-03-27T00:50:49.076Z,98963.88
2023-03-27T00:53:20.556Z,98962.28
2023-03-27T00:55:52.235Z,98966.84
2023-03-27T00:58:53.638Z,98973.19
2023-03-27T01:01:23.632Z,98970.75
2023-03-27T01:03:51.351Z,98966.41
2023-03-27T01:06:18.800Z,98980.59
2023-03-27T01:08:46.602Z,98981.59
2023-03-27T01:11:38.857Z,98982.59
2023-03-27T01:14:07.883Z,98991.47
2023-03-27T01:16:34.380Z,98997.66
2023-03-27T01:19:21.737Z,99004.75
2023-03-27T01:22:33.129Z,99013.72
2023-03-27T01:25:17.416Z,99021.66
2023-03-27T01:27:52.865Z,99023.56
2023-03-27T01:30:39.925Z,99029.72
2023-03-27T01:33:38.631Z,99033.41
2023-03-27T01:36:24.446Z,99037.91
2023-03-27T01:39:11.910Z,99042.34
2023-03-27T01:42:05.756Z,99053.81
2023-03-27T01:44:50.874Z,99051.28
2023-03-27T01:47:41.431Z,99047.88
2023-03-27T01:50:23.538Z,99062.84
2023-03-27T01:52:55.635Z,99063.78
2023-03-27T01:55:24.368Z,99062.94
2023-03-27T01:58:03.205Z,99074.41
2023-03-27T02:00:51.353Z,99072.81
2023-03-27T02:03:22.721Z,99078.13
2023-03-27T02:06:03.252Z,99095.66
2023-03-27T02:08:48.882Z,99104.47
2023-03-27T02:11:15.995Z,99101.03
2023-03-27T02:13:52.118Z,99103.72
2023-03-27T02:16:22.993Z,99107.28
2023-03-27T02:19:00.918Z,99110.88
2023-03-27T02:21:31.281Z,99117.88
2023-03-27T02:23:58.053Z,99120.50
2023-03-27T02:26:25.204Z,99125.00
2023-03-27T02:29:05.538Z,99140.75
2023-03-27T02:31:48.891Z,99146.06
2023-03-27T02:34:21.578Z,99154.88
2023-03-27T02:37:08.533Z,99161.88
2023-03-27T02:40:07.435Z,99161.97
2023-03-27T02:42:39.527Z,99165.56
2023-03-27T02:45:14.128Z,99169.94
2023-03-27T02:47:45.759Z,99183.03
2023-03-27T02:50:24.716Z,99194.34
2023-03-27T02:52:58.585Z,99193.59
2023-03-27T02:55:29.837Z,99197.09
2023-03-27T02:58:02.635Z,99211.94
2023-03-27T03:00:33.218Z,99207.69
2023-03-27T03:03:09.590Z,99219.09
2023-03-27T03:05:39.257Z,99218.25
2023-03-27T03:08:10.523Z,99223.53
2023-03-27T03:10:43.185Z,99229.66
2023-03-27T03:13:09.520Z,99228.78
2023-03-27T03:15:35.909Z,99236.69
2023-03-27T03:18:05.718Z,99246.31
2023-03-27T03:20:32.115Z,99255.94
2023-03-27T03:22:58.821Z,99254.25
2023-03-27T03:25:26.459Z,99256.00
2023-03-27T03:27:58.039Z,99259.59
2023-03-27T03:30:29.071Z,99290.09
2023-03-27T03:32:56.101Z,99265.75
2023-03-27T03:35:24.573Z,99274.50
2023-03-27T03:37:52.702Z,99272.84
2023-03-27T03:40:20.307Z,99275.50
2023-03-27T03:42:51.504Z,99285.16
2023-03-27T03:45:19.400Z,99290.41
2023-03-27T03:47:48.574Z,99298.31
2023-03-27T03:50:15.425Z,99317.53
2023-03-27T03:52:42.352Z,99319.28
2023-03-27T03:55:11.973Z,99328.03
2023-03-27T03:57:38.475Z,99329.88
2023-03-27T04:00:12.054Z,99328.19
2023-03-27T04:02:40.610Z,99346.50
2023-03-27T04:05:10.312Z,99342.16
2023-03-27T04:07:39.802Z,99333.47
2023-03-27T04:10:07.669Z,99351.75
2023-03-27T04:12:34.089Z,99359.63
2023-03-27T04:15:01.899Z,99367.50
2023-03-27T04:17:28.593Z,99384.03
2023-03-27T04:19:55.033Z,99383.19
2023-03-27T04:22:23.014Z,99392.72
2023-03-27T04:24:51.500Z,99402.34
2023-03-27T04:27:18.105Z,99404.97
2023-03-27T04:29:47.275Z,99412.78
2023-03-27T04:32:19.322Z,99421.53
2023-03-27T04:34:50.299Z,99419.84
2023-03-27T04:37:16.871Z,99435.50
2023-03-27T04:39:50.128Z,99436.44
2023-03-27T04:42:16.521Z,99445.19
2023-03-27T04:44:46.360Z,99433.88
2023-03-27T04:47:17.276Z,99446.09
2023-03-27T04:49:46.915Z,99445.28
2023-03-27T04:52:14.280Z,99447.00
2023-03-27T04:54:41.917Z,99460.94
2023-03-27T04:57:10.274Z,99467.06
2023-03-27T04:59:37.409Z,99474.94
2023-03-27T05:02:06.347Z,99474.09
2023-03-27T05:04:34.488Z,99472.41
2023-03-27T05:07:02.452Z,99478.53
2023-03-27T05:09:28.837Z,99477.66
2023-03-27T05:11:55.174Z,99478.53
2023-03-27T05:14:23.299Z,99483.72
2023-03-27T05:16:50.621Z,99484.56
2023-03-27T05:19:20.010Z,99489.78
2023-03-27T05:21:48.132Z,99496.75
2023-03-27T05:24:15.958Z,99498.50
2023-03-27T05:26:43.251Z,99499.34
2023-03-27T05:29:10.031Z,99516.75
2023-03-27T05:31:37.339Z,99514.03
2023-03-27T05:34:04.256Z,99523.56
2023-03-27T05:36:30.622Z,99526.06
2023-03-27T05:38:58.220Z,99533.03
2023-03-27T05:41:24.984Z,99538.22
2023-03-27T05:43:51.785Z,99548.59
2023-03-27T05:46:20.834Z,99545.94
2023-03-27T05:48:50.806Z,99552.84
2023-03-27T05:51:17.898Z,99555.47
2023-03-27T05:53:44.287Z,99559.75
2023-03-27T05:56:10.709Z,99564.91
2023-03-27T05:58:37.525Z,99565.75
2023-03-27T06:01:04.311Z,99577.88
2023-03-27T06:03:30.901Z,99577.81
2023-03-27T06:06:00.287Z,99580.34
2023-03-27T06:08:28.546Z,99590.78
2023-03-27T06:10:55.301Z,99599.41
2023-03-27T06:13:21.948Z,99600.22
2023-03-27T06:15:50.668Z,99597.56
2023-03-27T06:18:17.214Z,99606.28
2023-03-27T06:20:44.069Z,99613.16
2023-03-27T06:23:10.614Z,99604.38
2023-03-27T06:25:39.381Z,99606.91
2023-03-27T06:28:09.582Z,99609.47
2023-03-27T06:30:39.560Z,99622.47
2023-03-27T06:33:07.664Z,99621.56
2023-03-27T06:35:34.331Z,99626.63
2023-03-27T06:38:02.622Z,99624.81
2023-03-27T06:40:31.303Z,99635.19
2023-03-27T06:43:03.781Z,99636.84
2023-03-27T06:45:38.671Z,99635.00
2023-03-27T06:48:16.086Z,99645.34
2023-03-27T06:50:47.177Z,99647.88
2023-03-27T06:53:26.494Z,99653.88
2023-03-27T06:55:54.918Z,99650.25
2023-03-27T06:58:21.796Z,99657.13
2023-03-27T07:00:51.155Z,99659.56
2023-03-27T07:03:19.752Z,99661.03
2023-03-27T07:05:46.480Z,99667.88
2023-03-27T07:10:45.860Z,99673.75
2023-03-27T07:13:17.520Z,99680.50
2023-03-27T07:15:43.869Z,99684.75
2023-03-27T07:18:11.391Z,99683.72
2023-03-27T07:20:38.288Z,99687.97
2023-03-27T07:23:06.350Z,99697.44
2023-03-27T07:25:37.279Z,99693.75
2023-03-27T07:28:06.595Z,99697.03
2023-03-27T07:30:34.006Z,99706.47
2023-03-27T07:33:00.462Z,99704.47
2023-03-27T07:35:27.146Z,99701.47
2023-03-27T07:37:54.374Z,99713.44
2023-03-27T07:40:29.416Z,99702.84
2023-03-27T07:43:07.044Z,99711.38
2023-03-27T07:45:35.130Z,99712.13
2023-03-27T07:48:10.318Z,99707.56
2023-03-27T07:50:37.674Z,99714.22
2023-03-27T07:53:06.196Z,99711.22
2023-03-27T09:00:46.583Z,99750.06
2023-03-27T09:03:24.707Z,99744.00
2023-03-27T09:06:25.227Z,99758.59
2023-03-27T09:09:03.307Z,99765.72
2023-03-27T09:11:44.403Z,99767.91
2023-03-27T09:14:27.434Z,99765.97
2023-03-27T09:16:56.978Z,99758.13
2023-03-27T09:19:52.672Z,99767.19
2023-03-27T09:22:44.292Z,99761.94
2023-03-27T09:25:26.255Z,99761.28
2023-03-27T09:27:53.380Z,99768.53
2023-03-27T09:30:26.893Z,99772.31
2023-03-27T09:33:06.450Z,99766.81
2023-03-27T09:35:35.377Z,99778.34
2023-03-27T09:38:10.657Z,99772.41
2023-03-27T09:40:47.584Z,99773.50
2023-03-27T09:43:28.578Z,99767.06
2023-03-27T09:45:56.608Z,99775.19
2023-03-27T09:48:47.060Z,99763.56
2023-03-27T09:51:56.956Z,99775.69
2023-03-27T09:54:28.730Z,99786.19
2023-03-27T09:57:08.240Z,99790.63
2023-03-27T09:59:56.125Z,99787.28
2023-03-27T10:02:27.283Z,99790.84
2023-03-27T10:05:15.654Z,99782.47
2023-03-27T10:07:43.160Z,99802.66
2023-03-27T10:10:15.892Z,99844.19
2023-03-27T10:12:43.258Z,99854.09
2023-03-27T10:15:38.720Z,99833.13
2023-03-27T10:18:27.422Z,99837.03
2023-03-27T10:20:56.748Z,99839.72
2023-03-27T10:23:44.883Z,99842.47
2023-03-27T10:26:16.880Z,99837.38
2023-03-27T10:28:48.927Z,99837.00
2023-03-27T10:31:30.999Z,99826.22
2023-03-27T10:34:01.062Z,99814.97
2023-03-27T10:36:33.758Z,99823.91
2023-03-27T10:39:12.561Z,99824.34
2023-03-27T10:41:42.280Z,99809.66
2023-03-27T10:44:26.046Z,99814.34
2023-03-27T10:46:53.533Z,99812.84
2023-03-27T10:49:34.744Z,99823.38
2023-03-27T10:52:23.005Z,99836.66
2023-03-27T10:55:11.947Z,99829.59
2023-03-27T10:57:41.540Z,99823.31
2023-03-27T11:00:20.605Z,99812.59
2023-03-27T11:02:50.890Z,99811.28
2023-03-27T11:05:36.319Z,99803.88
2023-03-27T11:08:10.277Z,99817.22
2023-03-27T11:10:45.488Z,99820.13
2023-03-27T11:13:19.028Z,99813.47
2023-03-27T11:15:48.395Z,99812.16
2023-03-27T11:18:28.753Z,99807.78
2023-03-27T11:20:59.632Z,99801.66
2023-03-27T11:23:36.880Z,99812.91
2023-03-27T11:26:06.091Z,99807.63
2023-03-27T11:28:43.006Z,99815.38
2023-03-27T11:31:21.775Z,99811.66
2023-03-27T11:34:07.906Z,99811.41
2023-03-27T11:36:49.398Z,99821.06
2023-03-27T11:39:46.700Z,99822.75
2023-03-27T11:42:36.890Z,99812.47
2023-03-27T11:45:07.316Z,99816.31
2023-03-27T11:47:45.652Z,99835.41
2023-03-27T11:50:33.887Z,99836.22
2023-03-27T11:53:35.200Z,99830.91
2023-03-27T11:56:14.394Z,99832.38
2023-03-27T11:59:08.596Z,99832.47
2023-03-27T12:01:50.456Z,99840.91
2023-03-27T12:04:36.576Z,99830.56
2023-03-27T12:07:16.901Z,99830.44
2023-03-27T12:10:02.876Z,99836.22
2023-03-27T12:13:03.316Z,99820.41
2023-03-27T12:15:51.932Z,99817.97
2023-03-27T12:19:01.895Z,99823.94
2023-03-27T12:22:09.278Z,99827.78
2023-03-27T12:25:20.218Z,99824.22
2023-03-27T12:28:05.197Z,99837.66
2023-03-27T12:31:13.804Z,99838.75
2023-03-27T12:33:54.593Z,99845.81
2023-03-27T12:36:24.602Z,99847.16
2023-03-27T12:38:52.912Z,99842.16
2023-03-27T12:41:29.829Z,99833.19
2023-03-27T12:44:01.177Z,99829.06
2023-03-27T12:46:28.395Z,99845.38
2023-03-27T12:49:05.040Z,99847.13
2023-03-27T12:51:51.151Z,99867.16
2023-03-27T12:54:26.698Z,99870.13
2023-03-27T12:57:19.281Z,99875.56
2023-03-27T12:59:48.648Z,99864.50
2023-03-27T13:02:15.266Z,99863.72
2023-03-27T13:05:00.643Z,99857.91
2023-03-27T13:07:54.841Z,99853.69
2023-03-27T13:10:29.801Z,99850.63
2023-03-27T13:13:24.625Z,99850.25
2023-03-27T13:16:22.780Z,99849.81
2023-03-27T13:19:10.653Z,99862.38
2023-03-27T13:22:07.939Z,99857.47
2023-03-27T13:24:59.338Z,99852.22
2023-03-27T13:28:03.434Z,99853.25
2023-03-27T13:30:47.471Z,99859.00
2023-03-27T13:33:22.552Z,99866.53
2023-03-27T13:35:59.688Z,99863.69
2023-03-27T13:38:46.360Z,99870.97
2023-03-27T13:41:43.623Z,99876.59
2023-03-27T13:44:40.918Z,99866.97
2023-03-27T13:47:33.557Z,99857.50
2023-03-27T13:50:24.867Z,99854.22
2023-03-27T13:53:01.028Z,99875.75
2023-03-27T13:55:48.441Z,99876.38
2023-03-27T13:58:35.878Z,99873.69
2023-03-27T14:01:44.226Z,99879.25
2023-03-27T14:04:38.525Z,99875.94
2023-03-27T14:07:22.652Z,99877.25
2023-03-27T14:10:46.632Z,99882.44
2023-03-27T14:13:22.074Z,99870.94
2023-03-27T14:16:29.827Z,99872.75
2023-03-27T14:19:30.173Z,99880.41
2023-03-27T14:22:01.098Z,99877.03
2023-03-27T14:24:44.230Z,99883.56
2023-03-27T14:27:15.892Z,99880.56
2023-03-27T14:29:42.361Z,99888.09
2023-03-27T14:32:15.720Z,99882.28
2023-03-27T14:35:02.581Z,99913.75
2023-03-27T14:37:32.659Z,99902.47
2023-03-27T14:40:01.200Z,99915.97
2023-03-27T14:42:32.065Z,99916.94
2023-03-27T14:45:22.858Z,99934.06
2023-03-27T14:48:06.261Z,99963.31
2023-03-27T14:50:34.585Z,99962.66
2023-03-27T14:53:06.081Z,99969.13
2023-03-27T14:55:34.710Z,99972.88
2023-03-27T14:58:11.239Z,99953.44
2023-03-27T15:00:40.475Z,99953.91
2023-03-27T15:03:13.751Z,99962.56
2023-03-27T15:06:04.641Z,99955.06
2023-03-27T15:08:37.253Z,99954.06
2023-03-27T15:11:10.861Z,99949.50
2023-03-27T15:13:37.269Z,99954.56
2023-03-27T15:16:06.647Z,99947.53
2023-03-27T15:18:49.935Z,99951.59
2023-03-27T15:21:34.614Z,99943.09
2023-03-27T15:24:18.277Z,99939.94
2023-03-27T15:26:48.411Z,99941.63
2023-03-27T15:29:27.263Z,99951.44
2023-03-27T15:31:56.345Z,99949.69
2023-03-27T15:34:35.048Z,99950.56
2023-03-27T15:37:05.646Z,99953.13
2023-03-27T15:39:34.246Z,99953.31
2023-03-27T15:42:12.289Z,99948.69
2023-03-27T15:44:40.089Z,99953.78
2023-03-27T15:47:30.228Z,99949.59
2023-03-27T15:50:15.076Z,99945.06
2023-03-27T15:52:54.133Z,99951.63
2023-03-27T15:55:38.056Z,99951.50
2023-03-27T15:58:25.365Z,99960.22
2023-03-27T16:01:03.344Z,99962.84
2023-03-27T16:03:45.426Z,99971.66
2023-03-27T16:06:22.345Z,100010.72
2023-03-27T16:08:49.456Z,100023.63
2023-03-27T16:11:42.936Z,100033.72
2023-03-27T16:14:43.726Z,100051.25
2023-03-27T16:17:16.942Z,100048.56
2023-03-27T16:19:52.829Z,100061.66
2023-03-27T16:22:22.486Z,100042.56
2023-03-27T16:24:48.970Z,100056.03
2023-03-27T16:27:16.234Z,100038.78
2023-03-27T16:29:42.570Z,100038.06
2023-03-27T16:32:13.098Z,100041.88
2023-03-27T16:34:40.711Z,100045.28
2023-03-27T16:37:07.603Z,100050.16
2023-03-27T16:39:34.573Z,100049.66
2023-03-27T16:42:03.456Z,100044.28
2023-03-27T16:44:29.817Z,100043.50
2023-03-27T16:46:58.110Z,100037.56
2023-03-27T16:49:24.473Z,100043.16
2023-03-27T16:51:50.988Z,100042.41
2023-03-27T16:54:17.459Z,100050.56
2023-03-27T16:56:44.228Z,100048.41
2023-03-27T16:59:12.482Z,100059.94
2023-03-27T17:01:38.915Z,100056.44
2023-03-27T17:04:06.747Z,100057.25
2023-03-27T17:06:33.326Z,100069.88
2023-03-27T17:09:00.217Z,100078.72
2023-03-27T17:11:26.694Z,100080.66
2023-03-27T17:13:53.752Z,100078.25
2023-03-27T17:16:20.206Z,100084.69
2023-03-27T17:18:46.979Z,100090.97
2023-03-27T17:21:15.542Z,100097.22
2023-03-27T17:23:43.583Z,100100.03
2023-03-27T17:26:14.793Z,100103.63
2023-03-27T17:28:43.251Z,100109.81
2023-03-27T17:31:09.672Z,100115.25
2023-03-27T17:33:36.918Z,100124.13
2023-03-27T17:36:08.587Z,100121.59
2023-03-27T17:38:35.121Z,100120.84
2023-03-27T17:41:01.482Z,100124.47
2023-03-27T17:43:27.862Z,100131.59
2023-03-27T17:45:54.786Z,100137.78
2023-03-27T17:48:21.392Z,100139.63
2023-03-27T17:50:58.011Z,100140.69
2023-03-27T17:53:31.998Z,100147.72
2023-03-27T17:55:59.507Z,100146.88
2023-03-27T17:58:29.318Z,100151.25
2023-03-27T18:00:56.384Z,100146.97
2023-03-27T18:03:23.246Z,100153.13
2023-03-27T18:05:50.123Z,100155.75
2023-03-27T18:08:17.906Z,100163.56
2023-03-27T18:10:49.885Z,100164.59
2023-03-27T18:13:18.427Z,100173.28
2023-03-27T18:15:47.257Z,100167.16
2023-03-27T18:18:13.954Z,100171.53
2023-03-27T18:20:53.211Z,100171.50
2023-03-27T18:23:22.077Z,100179.44
2023-03-27T18:25:54.192Z,100181.16
2023-03-27T18:28:20.751Z,100178.59
2023-03-27T18:30:47.377Z,100184.75
2023-03-27T18:33:14.199Z,100187.47
2023-03-27T18:35:42.614Z,100189.28
2023-03-27T18:38:11.923Z,100189.31
2023-03-27T18:40:38.374Z,100204.31
2023-03-27T18:43:05.082Z,100216.66
2023-03-27T18:45:31.452Z,100211.53
2023-03-27T18:48:01.361Z,100207.22
2023-03-27T18:50:30.522Z,100216.06
2023-03-27T18:52:57.152Z,100213.50
2023-03-27T18:55:24.337Z,100215.38
2023-03-27T18:57:52.378Z,100217.19
2023-03-27T19:00:20.486Z,100222.50
2023-03-27T19:02:48.290Z,100219.88
2023-03-27T19:05:16.179Z,100221.69
2023-03-27T19:07:44.531Z,100226.13
2023-03-27T19:10:12.674Z,100221.75
2023-03-27T19:12:39.223Z,100227.03
2023-03-27T19:15:17.316Z,100221.75
2023-03-27T19:17:46.982Z,100234.03
2023-03-27T19:20:14.587Z,100232.31
2023-03-27T19:22:41.202Z,100228.84
2023-03-27T19:25:09.144Z,100235.03
2023-03-27T19:27:38.512Z,100235.94
2023-03-27T19:30:07.407Z,100240.41
2023-03-27T19:32:34.883Z,100249.16
2023-03-27T19:35:03.555Z,100251.84
2023-03-27T19:37:31.517Z,100255.34
2023-03-27T19:39:59.809Z,100254.56
2023-03-27T19:42:26.557Z,100253.72
2023-03-27T19:44:53.236Z,100261.69
2023-03-27T19:47:19.680Z,100258.22
2023-03-27T19:51:27.996Z,100267.72
2023-03-27T19:53:55.529Z,100266.78
2023-03-27T19:56:22.401Z,100264.25
2023-03-27T19:58:49.684Z,100277.44
2023-03-27T20:01:20.042Z,100274.00
2023-03-27T20:03:46.684Z,100278.47
2023-03-27T20:06:19.450Z,100283.81
2023-03-27T20:08:46.453Z,100282.09
2023-03-27T20:11:15.078Z,100279.59
2023-03-27T20:13:52.934Z,100282.25
2023-03-27T20:16:20.995Z,100290.25
2023-03-27T20:18:55.445Z,100285.94
2023-03-27T20:21:27.031Z,100286.91
2023-03-27T20:23:56.134Z,100296.59
2023-03-27T20:26:23.852Z,100289.69
2023-03-27T20:28:51.349Z,100287.97
2023-03-27T20:31:19.515Z,100287.16
2023-03-27T20:33:48.072Z,100291.56
2023-03-27T20:36:14.623Z,100289.00
2023-03-27T20:38:43.490Z,100282.13
2023-03-27T20:41:10.696Z,100285.69
2023-03-27T20:43:38.496Z,100283.97
2023-03-27T20:46:05.133Z,100292.78
2023-03-27T20:48:41.780Z,100292.78
2023-03-27T20:51:14.879Z,100292.00
2023-03-27T20:53:54.235Z,100294.69
2023-03-27T20:56:22.433Z,100298.19
2023-03-27T20:58:49.106Z,100301.78
2023-03-27T21:01:19.303Z,100299.19
2023-03-27T21:03:51.560Z,100305.34
2023-03-27T21:06:20.483Z,100305.38
2023-03-27T21:08:48.002Z,100313.25
2023-03-27T21:11:15.553Z,100311.53
2023-03-27T21:13:43.045Z,100315.94
2023-03-27T21:16:11.389Z,100322.94
2023-03-27T21:18:37.870Z,100322.13
2023-03-27T21:21:04.834Z,100325.63
2023-03-27T21:23:33.329Z,100328.25
2023-03-27T21:26:01.458Z,100326.53
2023-03-27T21:28:28.114Z,100329.16
2023-03-27T21:30:54.689Z,100330.06
2023-03-27T21:33:21.679Z,100326.59
2023-03-27T21:35:49.188Z,100329.19
2023-03-27T21:38:19.088Z,100328.31
2023-03-27T21:40:47.234Z,100338.81
2023-03-27T21:43:14.320Z,100336.19
2023-03-27T21:45:43.072Z,100336.19
2023-03-27T21:48:10.707Z,100336.19
2023-03-27T21:50:39.545Z,100335.34
2023-03-27T21:53:08.045Z,100336.19
2023-03-27T21:55:34.757Z,100341.44
2023-03-27T21:58:01.224Z,100342.31
2023-03-27T22:00:27.646Z,100340.59
2023-03-27T22:02:54.157Z,100338.84
2023-03-27T22:05:20.715Z,100340.59
2023-03-27T22:07:49.640Z,100344.09
2023-03-27T22:10:16.543Z,100343.25
2023-03-27T22:12:43.414Z,100346.75
2023-03-27T22:15:10.626Z,100345.88
2023-03-27T22:17:38.204Z,100349.38
2023-03-27T22:20:06.185Z,100351.13
2023-03-27T22:22:36.642Z,100355.50
2023-03-27T22:25:03.966Z,100351.13
2023-03-27T22:27:30.870Z,100349.41
2023-03-27T22:29:57.246Z,100351.16
2023-03-27T22:32:23.628Z,100349.41
2023-03-27T22:34:50.105Z,100353.78
2023-03-27T22:37:17.308Z,100363.38
2023-03-27T22:39:43.739Z,100359.91
2023-03-27T22:42:10.762Z,100366.88
2023-03-27T22:44:37.130Z,100361.63
2023-03-27T22:47:03.536Z,100366.88
2023-03-27T22:49:29.924Z,100366.88
2023-03-27T22:51:56.249Z,100368.63
2023-03-27T22:54:22.584Z,100377.38
2023-03-27T22:56:50.616Z,100375.63
2023-03-27T22:59:17.314Z,100382.59
2023-03-27T23:01:43.875Z,100391.31
2023-03-27T23:04:10.344Z,100392.19
2023-03-27T23:06:36.726Z,100400.03
2023-03-27T23:09:03.173Z,100401.78
2023-03-27T23:11:30.034Z,100407.00
2023-03-27T23:14:00.747Z,100413.09
2023-03-27T23:16:27.344Z,100417.47
2023-03-27T23:18:53.730Z,100416.59
2023-03-27T23:21:20.062Z,100420.09
2023-03-27T23:23:46.684Z,100425.31
2023-03-27T23:26:13.782Z,100422.69
2023-03-27T23:28:41.773Z,100443.59
2023-03-27T23:31:11.805Z,100428.81
2023-03-27T23:33:41.729Z,100436.63
2023-03-27T23:36:10.957Z,100445.34
2023-03-27T23:38:41.906Z,100440.13
2023-03-27T23:41:11.115Z,100445.34
2023-03-27T23:43:37.844Z,100441.00
2023-03-27T23:46:08.433Z,100449.72
2023-03-27T23:48:35.372Z,100457.56
2023-03-27T23:51:04.898Z,100461.03
2023-03-27T23:53:32.489Z,100452.31
2023-03-27T23:56:00.302Z,100481.06
2023-03-27T23:58:32.556Z,100465.34
